createdAt,value
2022-11-29T00:00:10.560Z,8.80
2022-11-29T00:02:39.368Z,8.80
2022-11-29T00:05:10.221Z,8.80
2022-11-29T00:07:38.583Z,8.80
2022-11-29T00:10:08.214Z,8.80
2022-11-29T00:12:36.788Z,8.90
2022-11-29T00:15:05.608Z,8.90
2022-11-29T00:17:34.229Z,8.90
2022-11-29T00:20:02.492Z,8.90
2022-11-29T00:22:32.611Z,9.00
2022-11-29T00:25:01.191Z,9.00
2022-11-29T00:27:30.607Z,9.00
2022-11-29T00:29:59.267Z,9.10
2022-11-29T00:32:28.568Z,9.10
2022-11-29T00:34:59.448Z,9.10
2022-11-29T00:37:28.704Z,9.10
2022-11-29T00:39:58.725Z,9.10
2022-11-29T00:42:27.058Z,9.10
2022-11-29T00:44:55.656Z,9.10
2022-11-29T00:47:23.958Z,9.10
2022-11-29T00:49:52.254Z,9.10
2022-11-29T00:52:20.775Z,9.00
2022-11-29T00:54:49.051Z,9.10
2022-11-29T00:57:21.168Z,9.00
2022-11-29T00:59:49.428Z,9.00
2022-11-29T01:02:17.987Z,9.00
2022-11-29T01:04:47.723Z,9.10
2022-11-29T01:07:16.219Z,9.00
2022-11-29T01:09:44.690Z,9.10
2022-11-29T01:12:13.312Z,9.10
2022-11-29T01:14:43.743Z,9.10
2022-11-29T01:17:12.645Z,9.20
2022-11-29T01:19:50.941Z,9.20
2022-11-29T01:22:19.877Z,9.30
2022-11-29T01:24:48.553Z,9.30
2022-11-29T01:27:16.886Z,9.30
2022-11-29T01:29:47.421Z,9.40
2022-11-29T01:32:15.762Z,9.40
2022-11-29T01:34:44.898Z,9.40
2022-11-29T01:37:13.364Z,9.40
2022-11-29T01:39:41.659Z,9.50
2022-11-29T01:42:12.354Z,9.50
2022-11-29T01:45:20.270Z,9.50
2022-11-29T01:47:51.477Z,9.50
2022-11-29T01:50:20.842Z,9.50
2022-11-29T01:52:51.189Z,9.50
2022-11-29T01:55:21.622Z,9.50
2022-11-29T01:57:50.824Z,9.50
2022-11-29T02:00:21.680Z,9.50
2022-11-29T02:02:54.409Z,9.40
2022-11-29T02:05:23.476Z,9.40
2022-11-29T02:07:54.940Z,9.40
2022-11-29T02:10:27.326Z,9.40
2022-11-29T02:13:03.348Z,9.50
2022-11-29T02:15:44.630Z,9.40
2022-11-29T02:18:16.517Z,9.40
2022-11-29T02:21:12.818Z,9.40
2022-11-29T02:24:11.796Z,9.40
2022-11-29T02:27:11.040Z,9.40
2022-11-29T02:29:58.578Z,9.40
2022-11-29T02:32:55.527Z,9.40
2022-11-29T02:35:40.434Z,9.40
2022-11-29T02:38:26.988Z,9.40
2022-11-29T02:41:09.800Z,9.40
2022-11-29T02:44:11.212Z,9.40
2022-11-29T02:46:58.152Z,9.40
2022-11-29T02:49:54.903Z,9.30
2022-11-29T02:52:33.669Z,9.30
2022-11-29T02:55:11.003Z,9.30
2022-11-29T02:57:45.789Z,9.20
2022-11-29T03:00:17.317Z,9.20
2022-11-29T03:02:54.337Z,9.20
2022-11-29T03:05:32.118Z,9.20
2022-11-29T03:08:07.282Z,9.20
2022-11-29T03:10:47.759Z,9.20
2022-11-29T03:13:23.754Z,9.20
2022-11-29T03:16:00.854Z,9.20
2022-11-29T03:18:43.358Z,9.20
2022-11-29T03:21:22.137Z,9.20
2022-11-29T03:23:54.867Z,9.20
2022-11-29T03:26:31.044Z,9.20
2022-11-29T03:29:08.936Z,9.20
2022-11-29T03:31:40.359Z,9.20
2022-11-29T03:34:23.692Z,9.20
2022-11-29T03:37:01.588Z,9.20
2022-11-29T03:39:38.974Z,9.20
2022-11-29T03:42:13.769Z,9.20
2022-11-29T03:44:48.135Z,9.20
2022-11-29T03:47:19.995Z,9.10
2022-11-29T03:49:54.886Z,9.10
2022-11-29T03:52:30.753Z,9.10
2022-11-29T03:55:13.842Z,9.00
2022-11-29T03:57:51.472Z,9.00
2022-11-29T04:00:20.759Z,9.00
2022-11-29T04:03:21.168Z,9.00
2022-11-29T04:06:12.634Z,9.00
2022-11-29T04:08:56.994Z,9.00
2022-11-29T04:11:59.243Z,9.00
2022-11-29T04:15:02.104Z,9.10
2022-11-29T04:18:03.834Z,9.10
2022-11-29T04:21:02.604Z,9.10
2022-11-29T04:24:14.596Z,9.10
2022-11-29T04:27:11.562Z,9.20
2022-11-29T04:29:56.990Z,9.20
2022-11-29T04:33:04.286Z,9.20
2022-11-29T04:35:50.300Z,9.20
2022-11-29T04:38:55.137Z,9.20
2022-11-29T04:41:46.894Z,9.20
2022-11-29T04:44:45.269Z,9.30
2022-11-29T04:47:30.686Z,9.30
2022-11-29T04:50:15.791Z,9.30
2022-11-29T04:53:10.446Z,9.30
2022-11-29T04:55:46.900Z,9.30
2022-11-29T04:58:24.342Z,9.30
2022-11-29T05:01:01.105Z,9.30
2022-11-29T05:03:38.714Z,9.30
2022-11-29T05:06:20.504Z,9.30
2022-11-29T05:09:04.522Z,9.30
2022-11-29T05:11:42.730Z,9.30
2022-11-29T05:14:21.303Z,9.30
2022-11-29T05:17:02.776Z,9.30
2022-11-29T05:19:50.292Z,9.40
2022-11-29T05:22:37.290Z,9.30
2022-11-29T05:25:32.650Z,9.30
2022-11-29T05:28:10.201Z,9.30
2022-11-29T05:31:10.784Z,9.30
2022-11-29T05:34:05.796Z,9.30
2022-11-29T05:36:41.762Z,9.30
2022-11-29T05:39:30.595Z,9.30
2022-11-29T05:42:31.563Z,9.30
2022-11-29T05:45:06.708Z,9.30
2022-11-29T05:47:40.915Z,9.30
2022-11-29T05:50:20.223Z,9.30
2022-11-29T05:52:57.139Z,9.30
2022-11-29T05:55:36.301Z,9.30
2022-11-29T05:58:13.925Z,9.30
2022-11-29T06:00:49.997Z,9.30
2022-11-29T06:03:26.222Z,9.30
2022-11-29T06:06:01.456Z,9.30
2022-11-29T06:08:38.791Z,9.30
2022-11-29T06:11:15.652Z,9.30
2022-11-29T06:14:13.495Z,9.30
2022-11-29T06:17:07.782Z,9.30
2022-11-29T06:20:09.154Z,9.40
2022-11-29T06:25:48.654Z,9.40
2022-11-29T06:28:36.728Z,9.40
2022-11-29T06:31:17.364Z,9.40
2022-11-29T06:33:56.405Z,9.40
2022-11-29T06:36:30.622Z,9.40
2022-11-29T06:39:00.764Z,9.50
2022-11-29T06:41:31.271Z,9.50
2022-11-29T06:44:00.180Z,9.50
2022-11-29T06:46:39.509Z,9.50
2022-11-29T06:49:13.921Z,9.50
2022-11-29T06:51:50.958Z,9.50
2022-11-29T06:54:43.719Z,9.50
2022-11-29T06:57:21.483Z,9.50
2022-11-29T07:00:03.687Z,9.60
2022-11-29T07:03:03.101Z,9.60
2022-11-29T07:05:32.733Z,9.60
2022-11-29T07:08:05.087Z,9.60
2022-11-29T07:10:37.431Z,9.60
2022-11-29T07:13:08.134Z,9.60
2022-11-29T07:15:42.068Z,9.60
2022-11-29T07:18:18.515Z,9.60
2022-11-29T07:21:00.823Z,9.60
2022-11-29T07:23:36.982Z,9.60
2022-11-29T07:26:18.920Z,9.60
2022-11-29T07:29:13.410Z,9.60
2022-11-29T07:31:51.091Z,9.60
2022-11-29T07:34:24.561Z,9.60
2022-11-29T07:37:03.587Z,9.60
2022-11-29T07:39:42.773Z,9.60
2022-11-29T07:42:20.428Z,9.60
2022-11-29T07:45:09.043Z,9.60
2022-11-29T07:47:37.441Z,9.60
2022-11-29T07:50:06.683Z,9.60
2022-11-29T07:52:36.747Z,9.60
2022-11-29T07:55:05.983Z,9.60
2022-11-29T07:57:36.595Z,9.60
2022-11-29T08:00:11.761Z,9.60
2022-11-29T08:02:41.040Z,9.60
2022-11-29T08:05:10.457Z,9.60
2022-11-29T08:07:40.752Z,9.70
2022-11-29T08:10:13.498Z,9.70
2022-11-29T08:12:46.284Z,9.70
2022-11-29T08:15:16.995Z,9.70
2022-11-29T08:17:45.934Z,9.70
2022-11-29T08:20:17.604Z,9.70
2022-11-29T08:22:45.832Z,9.70
2022-11-29T08:25:14.905Z,9.70
2022-11-29T08:27:43.753Z,9.70
2022-11-29T08:30:12.684Z,9.80
2022-11-29T08:32:44.837Z,9.80
2022-11-29T08:35:16.980Z,9.80
2022-11-29T08:37:46.709Z,9.80
2022-11-29T08:40:15.880Z,9.80
2022-11-29T08:42:44.561Z,9.80
2022-11-29T08:45:13.683Z,9.80
2022-11-29T08:47:43.734Z,9.80
2022-11-29T08:50:16.077Z,9.90
2022-11-29T08:53:09.796Z,9.90
2022-11-29T08:55:42.743Z,9.90
2022-11-29T08:58:16.835Z,9.90
2022-11-29T09:00:48.234Z,9.90
2022-11-29T09:03:36.279Z,9.90
2022-11-29T09:06:11.964Z,9.90
2022-11-29T09:08:43.636Z,9.90
2022-11-29T09:11:15.496Z,9.90
2022-11-29T09:13:45.434Z,9.90
2022-11-29T09:16:18.037Z,9.90
2022-11-29T09:18:52.203Z,9.90
2022-11-29T09:21:22.578Z,9.90
2022-11-29T09:23:51.241Z,9.90
2022-11-29T09:26:21.441Z,9.90
2022-11-29T09:28:52.089Z,9.90
2022-11-29T09:31:23.896Z,9.90
2022-11-29T09:33:53.866Z,10.00
2022-11-29T09:36:28.573Z,10.00
2022-11-29T09:39:02.696Z,10.00
2022-11-29T09:41:53.333Z,10.00
2022-11-29T09:44:29.039Z,10.00
2022-11-29T09:47:05.079Z,10.10
2022-11-29T09:50:04.132Z,10.10
2022-11-29T09:52:44.572Z,10.10
2022-11-29T09:55:40.294Z,10.20
2022-11-29T09:58:17.923Z,10.20
2022-11-29T10:00:51.216Z,10.30
2022-11-29T10:03:25.582Z,10.30
2022-11-29T10:05:59.777Z,10.30
2022-11-29T10:08:33.953Z,10.40
2022-11-29T10:11:17.261Z,10.40
2022-11-29T10:13:51.166Z,10.50
2022-11-29T10:16:26.615Z,10.50
2022-11-29T10:19:04.586Z,10.50
2022-11-29T10:21:37.805Z,10.60
2022-11-29T10:24:13.532Z,10.60
2022-11-29T10:26:43.674Z,10.70
2022-11-29T10:29:15.400Z,10.70
2022-11-29T10:31:49.344Z,10.70
2022-11-29T10:34:19.630Z,10.70
2022-11-29T10:36:54.054Z,10.80
2022-11-29T10:39:37.421Z,10.80
2022-11-29T10:42:27.944Z,10.80
2022-11-29T10:44:58.352Z,10.80
2022-11-29T10:47:26.847Z,10.80
2022-11-29T10:49:56.893Z,10.90
2022-11-29T10:52:26.610Z,10.90
2022-11-29T10:54:59.798Z,10.90
2022-11-29T10:57:29.436Z,10.90
2022-11-29T11:00:04.399Z,10.90
2022-11-29T11:02:33.661Z,10.90
2022-11-29T11:05:03.109Z,10.90
2022-11-29T11:07:35.803Z,10.90
2022-11-29T11:10:08.132Z,10.90
2022-11-29T11:12:38.086Z,10.90
2022-11-29T11:15:28.741Z,10.90
2022-11-29T11:17:59.062Z,10.90
2022-11-29T11:20:32.038Z,10.90
2022-11-29T11:23:03.792Z,10.80
2022-11-29T11:25:34.772Z,10.80
2022-11-29T11:28:18.415Z,10.80
2022-11-29T11:30:52.651Z,10.90
2022-11-29T11:33:25.533Z,10.90
2022-11-29T11:36:24.161Z,10.90
2022-11-29T11:38:55.601Z,11.00
2022-11-29T11:41:48.909Z,11.00
2022-11-29T11:44:46.710Z,11.10
2022-11-29T11:47:21.429Z,11.10
2022-11-29T11:49:54.956Z,11.20
2022-11-29T11:52:26.003Z,11.30
2022-11-29T11:55:05.751Z,11.30
2022-11-29T11:57:34.416Z,11.40
2022-11-29T12:00:07.317Z,11.40
2022-11-29T12:02:39.993Z,11.50
2022-11-29T12:05:17.106Z,11.50
2022-11-29T12:10:44.392Z,11.50
2022-11-29T12:13:21.355Z,11.50
2022-11-29T12:15:52.260Z,11.50
2022-11-29T12:18:31.779Z,11.50
2022-11-29T12:21:08.480Z,11.50
2022-11-29T12:23:45.267Z,11.40
2022-11-29T12:26:48.923Z,11.40
2022-11-29T12:29:15.302Z,11.30
2022-11-29T12:31:55.445Z,11.30
2022-11-29T12:34:49.474Z,11.20
2022-11-29T12:37:26.566Z,11.30
2022-11-29T12:40:02.734Z,11.20
2022-11-29T12:42:50.743Z,11.20
2022-11-29T12:45:38.565Z,11.20
2022-11-29T12:48:19.950Z,11.30
2022-11-29T12:50:57.023Z,11.30
2022-11-29T12:53:43.751Z,11.30
2022-11-29T12:56:22.766Z,11.30
2022-11-29T12:59:15.380Z,11.30
2022-11-29T13:02:02.593Z,11.30
2022-11-29T13:04:40.106Z,11.30
2022-11-29T13:07:22.112Z,11.30
2022-11-29T13:10:32.145Z,11.30
2022-11-29T13:13:09.793Z,11.20
2022-11-29T13:15:53.034Z,11.20
2022-11-29T13:18:28.213Z,11.20
2022-11-29T13:21:07.683Z,11.20
2022-11-29T13:26:32.977Z,11.20
2022-11-29T13:29:03.302Z,11.20
2022-11-29T13:31:34.421Z,11.20
2022-11-29T13:34:09.223Z,11.20
2022-11-29T13:36:55.182Z,11.20
2022-11-29T13:39:37.564Z,11.20
2022-11-29T13:42:12.686Z,11.20
2022-11-29T13:44:48.370Z,11.20
2022-11-29T13:47:20.099Z,11.20
2022-11-29T13:49:56.196Z,11.20
2022-11-29T13:52:42.285Z,11.20
2022-11-29T13:55:32.582Z,11.20
2022-11-29T13:58:22.252Z,11.20
2022-11-29T14:00:53.115Z,11.20
2022-11-29T14:03:40.789Z,11.20
2022-11-29T14:06:21.307Z,11.20
2022-11-29T14:09:26.572Z,11.20
2022-11-29T14:12:04.329Z,11.20
2022-11-29T14:14:39.096Z,11.20
2022-11-29T14:17:28.372Z,11.20
2022-11-29T14:20:51.615Z,11.20
2022-11-29T14:23:36.687Z,11.20
2022-11-29T14:26:30.164Z,11.20
2022-11-29T14:29:00.226Z,11.20
2022-11-29T14:31:51.864Z,11.20
2022-11-29T14:34:37.588Z,11.10
2022-11-29T14:37:25.239Z,11.10
2022-11-29T14:39:59.430Z,11.10
2022-11-29T14:42:29.972Z,11.10
2022-11-29T14:45:02.268Z,11.10
2022-11-29T14:47:34.500Z,11.00
2022-11-29T14:50:07.526Z,11.00
2022-11-29T14:52:41.258Z,11.00
2022-11-29T14:55:30.357Z,11.00
2022-11-29T14:58:18.355Z,11.00
2022-11-29T15:01:11.522Z,10.90
2022-11-29T15:03:51.104Z,10.90
2022-11-29T15:06:28.479Z,10.90
2022-11-29T15:09:04.777Z,10.90
2022-11-29T15:11:49.598Z,10.90
2022-11-29T15:14:24.306Z,10.80
2022-11-29T15:17:17.818Z,10.80
2022-11-29T15:20:29.362Z,10.80
2022-11-29T15:23:01.002Z,10.80
2022-11-29T15:25:32.519Z,10.70
2022-11-29T15:28:02.231Z,10.70
2022-11-29T15:30:35.698Z,10.60
2022-11-29T15:33:07.557Z,10.60
2022-11-29T15:35:37.675Z,10.60
2022-11-29T15:38:05.978Z,10.50
2022-11-29T15:40:37.348Z,10.50
2022-11-29T15:43:16.519Z,10.50
2022-11-29T15:45:50.377Z,10.50
2022-11-29T15:48:21.335Z,10.40
2022-11-29T15:50:54.971Z,10.40
2022-11-29T15:53:27.518Z,10.40
2022-11-29T15:55:59.490Z,10.40
2022-11-29T15:58:31.777Z,10.40
2022-11-29T16:01:03.335Z,10.40
2022-11-29T16:03:37.196Z,10.40
2022-11-29T16:06:09.972Z,10.40
2022-11-29T16:08:43.447Z,10.30
2022-11-29T16:11:19.215Z,10.30
2022-11-29T16:14:06.194Z,10.30
2022-11-29T16:16:37.723Z,10.20
2022-11-29T16:19:23.007Z,10.20
2022-11-29T16:22:08.734Z,10.20
2022-11-29T16:24:39.257Z,10.20
2022-11-29T16:27:09.560Z,10.10
2022-11-29T16:29:43.103Z,10.10
2022-11-29T16:32:17.301Z,10.10
2022-11-29T16:34:46.807Z,10.00
2022-11-29T16:37:20.061Z,10.00
2022-11-29T16:39:51.051Z,10.00
2022-11-29T16:42:26.017Z,10.00
2022-11-29T16:45:09.715Z,9.90
2022-11-29T16:48:01.649Z,9.90
2022-11-29T16:50:31.330Z,9.80
2022-11-29T16:53:35.115Z,9.80
2022-11-29T16:56:07.047Z,9.80
2022-11-29T16:59:20.956Z,9.70
2022-11-29T17:01:30.139Z,9.70
2022-11-29T17:03:59.713Z,9.70
2022-11-29T17:06:30.024Z,9.70
2022-11-29T17:09:00.098Z,9.70
2022-11-29T17:11:29.118Z,9.70
2022-11-29T17:13:58.789Z,9.60
2022-11-29T17:16:27.291Z,9.60
2022-11-29T17:18:55.875Z,9.50
2022-11-29T17:21:25.904Z,9.50
2022-11-29T17:23:56.466Z,9.50
2022-11-29T17:26:25.636Z,9.50
2022-11-29T17:28:54.303Z,9.50
2022-11-29T17:31:25.796Z,9.40
2022-11-29T17:33:54.403Z,9.40
2022-11-29T17:36:24.442Z,9.40
2022-11-29T17:38:52.872Z,9.40
2022-11-29T17:41:26.253Z,9.40
2022-11-29T17:43:56.791Z,9.40
2022-11-29T17:46:28.492Z,9.40
2022-11-29T17:48:59.455Z,9.40
2022-11-29T17:54:16.491Z,9.40
2022-11-29T17:59:27.078Z,9.40
2022-11-29T18:01:56.913Z,9.40
2022-11-29T18:04:25.187Z,9.40
2022-11-29T18:06:58.834Z,9.40
2022-11-29T18:09:28.212Z,9.40
2022-11-29T18:11:56.992Z,9.40
2022-11-29T18:14:28.395Z,9.50
2022-11-29T18:16:58.644Z,9.50
2022-11-29T18:19:28.061Z,9.50
2022-11-29T18:21:58.169Z,9.50
2022-11-29T18:24:26.726Z,9.50
2022-11-29T18:26:54.949Z,9.50
2022-11-29T18:29:23.337Z,9.50
2022-11-29T18:31:54.274Z,9.40
2022-11-29T18:34:24.194Z,9.50
2022-11-29T18:36:52.922Z,9.50
2022-11-29T18:39:23.630Z,9.50
2022-11-29T18:41:53.053Z,9.50
2022-11-29T18:44:24.343Z,9.50
2022-11-29T18:46:52.663Z,9.50
2022-11-29T18:49:21.790Z,9.50
2022-11-29T18:51:51.971Z,9.50
2022-11-29T18:54:20.521Z,9.50
2022-11-29T18:56:51.765Z,9.50
2022-11-29T18:59:20.084Z,9.50
2022-11-29T19:01:49.457Z,9.50
2022-11-29T19:04:23.104Z,9.40
2022-11-29T19:06:53.426Z,9.50
2022-11-29T19:09:23.369Z,9.40
2022-11-29T19:11:52.114Z,9.40
2022-11-29T19:14:21.328Z,9.40
2022-11-29T19:16:51.295Z,9.40
2022-11-29T19:19:20.170Z,9.40
2022-11-29T19:21:48.971Z,9.40
2022-11-29T19:24:19.984Z,9.40
2022-11-29T19:26:49.304Z,9.40
2022-11-29T19:29:17.915Z,9.40
2022-11-29T19:31:46.242Z,9.40
2022-11-29T19:34:15.139Z,9.40
2022-11-29T19:36:45.022Z,9.40
2022-11-29T19:39:15.595Z,9.40
2022-11-29T19:41:47.597Z,9.40
2022-11-29T19:44:15.920Z,9.30
2022-11-29T19:46:47.271Z,9.30
2022-11-29T19:49:15.525Z,9.40
2022-11-29T19:51:46.799Z,9.30
2022-11-29T19:54:15.080Z,9.30
2022-11-29T19:56:44.763Z,9.30
2022-11-29T19:59:13.103Z,9.30
2022-11-29T20:01:42.895Z,9.30
2022-11-29T20:04:15.561Z,9.30
2022-11-29T20:06:45.993Z,9.30
2022-11-29T20:09:15.105Z,9.30
2022-11-29T20:11:45.095Z,9.30
2022-11-29T20:14:14.732Z,9.30
2022-11-29T20:16:44.781Z,9.30
2022-11-29T20:19:15.041Z,9.30
2022-11-29T20:21:46.369Z,9.20
2022-11-29T20:24:15.674Z,9.20
2022-11-29T20:26:49.787Z,9.20
2022-11-29T20:29:19.371Z,9.20
2022-11-29T20:31:50.807Z,9.20
2022-11-29T20:34:20.844Z,9.20
2022-11-29T20:37:11.362Z,9.20
2022-11-29T20:39:47.127Z,9.20
2022-11-29T20:42:37.174Z,9.20
2022-11-29T20:45:10.077Z,9.10
2022-11-29T20:47:46.426Z,9.20
2022-11-29T20:50:22.876Z,9.10
2022-11-29T20:53:03.267Z,9.10
2022-11-29T20:55:32.759Z,9.10
2022-11-29T20:58:04.133Z,9.10
2022-11-29T21:00:33.164Z,9.10
2022-11-29T21:03:01.480Z,9.10
2022-11-29T21:05:29.750Z,9.00
2022-11-29T21:07:58.609Z,9.10
2022-11-29T21:10:29.795Z,9.00
2022-11-29T21:12:58.647Z,9.00
2022-11-29T21:15:29.433Z,9.00
2022-11-29T21:17:58.523Z,9.00
2022-11-29T21:20:28.527Z,9.00
2022-11-29T21:23:06.119Z,9.00
2022-11-29T21:25:44.174Z,9.00
2022-11-29T21:28:14.796Z,9.00
2022-11-29T21:30:46.837Z,9.00
2022-11-29T21:33:15.735Z,8.90
2022-11-29T21:35:44.279Z,9.00
2022-11-29T21:38:20.683Z,9.00
2022-11-29T21:40:49.485Z,8.90
2022-11-29T21:43:18.089Z,9.00
2022-11-29T21:45:51.415Z,8.90
2022-11-29T21:48:42.332Z,8.90
2022-11-29T21:51:12.297Z,9.00
2022-11-29T21:53:42.368Z,9.00
2022-11-29T21:56:12.055Z,9.00
2022-11-29T21:58:41.187Z,8.90
2022-11-29T22:01:14.001Z,8.90
2022-11-29T22:03:43.847Z,8.90
2022-11-29T22:06:13.608Z,8.90
2022-11-29T22:08:45.449Z,8.90
2022-11-29T22:11:15.359Z,8.90
2022-11-29T22:13:59.193Z,8.90
2022-11-29T22:16:29.741Z,8.90
2022-11-29T22:18:58.296Z,8.90
2022-11-29T22:21:30.066Z,8.90
2022-11-29T22:23:58.661Z,8.90
2022-11-29T22:26:28.596Z,8.90
2022-11-29T22:28:56.871Z,8.90
2022-11-29T22:31:25.171Z,8.90
2022-11-29T22:33:56.387Z,8.90
2022-11-29T22:36:29.255Z,8.90
2022-11-29T22:38:58.043Z,8.90
2022-11-29T22:41:26.645Z,8.90
2022-11-29T22:43:55.291Z,8.90
2022-11-29T22:46:25.003Z,8.90
2022-11-29T22:48:56.556Z,8.90
2022-11-29T22:51:27.039Z,8.90
2022-11-29T22:53:58.303Z,8.90
2022-11-29T22:56:28.551Z,8.90
2022-11-29T22:58:57.810Z,8.90
2022-11-29T23:01:27.593Z,8.90
2022-11-29T23:03:59.012Z,9.00
2022-11-29T23:06:29.223Z,8.90
2022-11-29T23:08:59.147Z,8.90
2022-11-29T23:11:31.391Z,8.90
2022-11-29T23:14:01.022Z,8.90
2022-11-29T23:16:31.081Z,8.90
2022-11-29T23:19:01.345Z,8.90
2022-11-29T23:21:31.813Z,8.90
2022-11-29T23:24:01.595Z,8.90
2022-11-29T23:26:34.000Z,8.90
2022-11-29T23:29:02.392Z,8.80
2022-11-29T23:31:30.905Z,8.80
2022-11-29T23:34:01.013Z,8.80
2022-11-29T23:36:29.548Z,8.70
2022-11-29T23:38:58.337Z,8.70
2022-11-29T23:41:26.780Z,8.70
2022-11-29T23:43:55.621Z,8.60
2022-11-29T23:46:25.361Z,8.60
2022-11-29T23:48:54.570Z,8.60
2022-11-29T23:51:25.489Z,8.60
2022-11-29T23:53:56.838Z,8.50
2022-11-29T23:56:25.159Z,8.50
2022-11-29T23:58:54.845Z,8.50
